sensor_id;sensor_type;location;lat;lon;timestamp;temperature;humidity
16404;DHT22;8311;50.158;8.642;2022-11-09T00:01:06;19.20;54.20
16404;DHT22;8311;50.158;8.642;2022-11-09T00:04:00;19.20;54.20
16404;DHT22;8311;50.158;8.642;2022-11-09T00:06:55;19.20;54.20
16404;DHT22;8311;50.158;8.642;2022-11-09T00:09:49;19.20;54.20
16404;DHT22;8311;50.158;8.642;2022-11-09T00:12:42;19.20;54.20
16404;DHT22;8311;50.158;8.642;2022-11-09T00:15:35;19.20;54.20
16404;DHT22;8311;50.158;8.642;2022-11-09T00:18:28;19.20;54.20
16404;DHT22;8311;50.158;8.642;2022-11-09T00:21:22;19.20;54.20
16404;DHT22;8311;50.158;8.642;2022-11-09T00:24:17;19.20;54.20
16404;DHT22;8311;50.158;8.642;2022-11-09T00:27:10;19.20;54.20
16404;DHT22;8311;50.158;8.642;2022-11-09T00:30:09;19.20;54.20
16404;DHT22;8311;50.158;8.642;2022-11-09T00:33:02;19.20;54.20
16404;DHT22;8311;50.158;8.642;2022-11-09T00:35:56;19.30;54.40
16404;DHT22;8311;50.158;8.642;2022-11-09T00:38:50;19.20;54.40
16404;DHT22;8311;50.158;8.642;2022-11-09T00:41:45;19.30;54.40
16404;DHT22;8311;50.158;8.642;2022-11-09T00:44:38;19.30;54.40
16404;DHT22;8311;50.158;8.642;2022-11-09T00:47:32;19.30;54.40
16404;DHT22;8311;50.158;8.642;2022-11-09T00:50:25;19.30;54.40
16404;DHT22;8311;50.158;8.642;2022-11-09T00:53:19;19.30;54.50
16404;DHT22;8311;50.158;8.642;2022-11-09T00:56:13;19.30;54.50
16404;DHT22;8311;50.158;8.642;2022-11-09T00:59:09;19.30;54.50
16404;DHT22;8311;50.158;8.642;2022-11-09T01:02:03;19.30;54.50
16404;DHT22;8311;50.158;8.642;2022-11-09T01:04:56;19.20;54.50
16404;DHT22;8311;50.158;8.642;2022-11-09T01:07:51;19.30;54.60
16404;DHT22;8311;50.158;8.642;2022-11-09T01:10:46;19.20;54.50
16404;DHT22;8311;50.158;8.642;2022-11-09T01:13:40;19.20;54.50
16404;DHT22;8311;50.158;8.642;2022-11-09T01:16:34;19.30;54.60
16404;DHT22;8311;50.158;8.642;2022-11-09T01:19:28;19.30;54.60
16404;DHT22;8311;50.158;8.642;2022-11-09T01:22:21;19.30;54.70
16404;DHT22;8311;50.158;8.642;2022-11-09T01:25:14;19.30;54.70
16404;DHT22;8311;50.158;8.642;2022-11-09T01:28:08;19.30;54.70
16404;DHT22;8311;50.158;8.642;2022-11-09T01:31:02;19.30;54.80
16404;DHT22;8311;50.158;8.642;2022-11-09T01:33:57;19.30;54.80
16404;DHT22;8311;50.158;8.642;2022-11-09T01:36:50;19.30;54.80
16404;DHT22;8311;50.158;8.642;2022-11-09T01:39:44;19.30;54.90
16404;DHT22;8311;50.158;8.642;2022-11-09T01:42:37;19.30;54.90
16404;DHT22;8311;50.158;8.642;2022-11-09T01:45:30;19.30;54.90
16404;DHT22;8311;50.158;8.642;2022-11-09T01:48:28;19.30;55.00
16404;DHT22;8311;50.158;8.642;2022-11-09T01:51:26;19.30;55.00
16404;DHT22;8311;50.158;8.642;2022-11-09T01:54:25;19.20;55.00
16404;DHT22;8311;50.158;8.642;2022-11-09T01:57:22;19.30;55.00
16404;DHT22;8311;50.158;8.642;2022-11-09T02:00:18;19.30;55.10
16404;DHT22;8311;50.158;8.642;2022-11-09T02:03:13;19.30;55.30
16404;DHT22;8311;50.158;8.642;2022-11-09T02:06:09;19.30;55.50
16404;DHT22;8311;50.158;8.642;2022-11-09T02:09:11;19.30;55.50
16404;DHT22;8311;50.158;8.642;2022-11-09T02:12:06;19.30;55.50
16404;DHT22;8311;50.158;8.642;2022-11-09T02:15:01;19.30;55.50
16404;DHT22;8311;50.158;8.642;2022-11-09T02:17:56;19.30;55.60
16404;DHT22;8311;50.158;8.642;2022-11-09T02:20:52;19.30;55.80
16404;DHT22;8311;50.158;8.642;2022-11-09T02:23:46;19.30;56.20
16404;DHT22;8311;50.158;8.642;2022-11-09T02:26:43;19.30;55.90
16404;DHT22;8311;50.158;8.642;2022-11-09T02:29:39;19.30;56.00
16404;DHT22;8311;50.158;8.642;2022-11-09T02:32:33;19.30;56.10
16404;DHT22;8311;50.158;8.642;2022-11-09T02:35:26;19.30;56.10
16404;DHT22;8311;50.158;8.642;2022-11-09T02:38:20;19.30;56.10
16404;DHT22;8311;50.158;8.642;2022-11-09T02:41:13;19.30;56.10
16404;DHT22;8311;50.158;8.642;2022-11-09T02:44:07;19.30;56.10
16404;DHT22;8311;50.158;8.642;2022-11-09T02:47:01;19.30;56.00
16404;DHT22;8311;50.158;8.642;2022-11-09T02:49:54;19.30;56.10
16404;DHT22;8311;50.158;8.642;2022-11-09T02:52:48;19.30;56.10
16404;DHT22;8311;50.158;8.642;2022-11-09T02:55:42;19.40;56.70
16404;DHT22;8311;50.158;8.642;2022-11-09T02:58:36;19.30;56.80
16404;DHT22;8311;50.158;8.642;2022-11-09T03:01:29;19.40;57.10
16404;DHT22;8311;50.158;8.642;2022-11-09T03:04:23;19.40;56.70
16404;DHT22;8311;50.158;8.642;2022-11-09T03:07:17;19.30;56.50
16404;DHT22;8311;50.158;8.642;2022-11-09T03:10:10;19.30;56.50
16404;DHT22;8311;50.158;8.642;2022-11-09T03:13:04;19.40;56.50
16404;DHT22;8311;50.158;8.642;2022-11-09T03:16:03;19.40;56.50
16404;DHT22;8311;50.158;8.642;2022-11-09T03:18:56;19.40;56.50
16404;DHT22;8311;50.158;8.642;2022-11-09T03:21:49;19.30;56.40
16404;DHT22;8311;50.158;8.642;2022-11-09T03:24:42;19.40;56.50
16404;DHT22;8311;50.158;8.642;2022-11-09T03:27:35;19.40;56.50
16404;DHT22;8311;50.158;8.642;2022-11-09T03:30:29;19.40;56.50
16404;DHT22;8311;50.158;8.642;2022-11-09T03:33:23;19.40;56.50
16404;DHT22;8311;50.158;8.642;2022-11-09T03:36:16;19.40;56.50
16404;DHT22;8311;50.158;8.642;2022-11-09T03:39:09;19.40;56.50
16404;DHT22;8311;50.158;8.642;2022-11-09T03:42:03;19.40;56.50
16404;DHT22;8311;50.158;8.642;2022-11-09T03:44:56;19.30;56.50
16404;DHT22;8311;50.158;8.642;2022-11-09T03:47:50;19.40;56.50
16404;DHT22;8311;50.158;8.642;2022-11-09T03:50:45;19.40;56.50
16404;DHT22;8311;50.158;8.642;2022-11-09T03:53:38;19.40;56.40
16404;DHT22;8311;50.158;8.642;2022-11-09T03:56:31;19.40;56.50
16404;DHT22;8311;50.158;8.642;2022-11-09T03:59:24;19.40;56.50
16404;DHT22;8311;50.158;8.642;2022-11-09T04:02:17;19.40;56.50
16404;DHT22;8311;50.158;8.642;2022-11-09T04:05:11;19.40;56.50
16404;DHT22;8311;50.158;8.642;2022-11-09T04:08:05;19.40;56.50
16404;DHT22;8311;50.158;8.642;2022-11-09T04:10:59;19.40;56.70
16404;DHT22;8311;50.158;8.642;2022-11-09T04:13:52;19.40;57.20
16404;DHT22;8311;50.158;8.642;2022-11-09T04:16:46;19.40;57.60
16404;DHT22;8311;50.158;8.642;2022-11-09T04:19:39;19.40;57.60
16404;DHT22;8311;50.158;8.642;2022-11-09T04:22:34;19.40;57.40
16404;DHT22;8311;50.158;8.642;2022-11-09T04:25:30;19.40;57.70
16404;DHT22;8311;50.158;8.642;2022-11-09T04:28:23;19.40;57.60
16404;DHT22;8311;50.158;8.642;2022-11-09T04:31:16;19.40;57.40
16404;DHT22;8311;50.158;8.642;2022-11-09T04:34:09;19.40;57.90
16404;DHT22;8311;50.158;8.642;2022-11-09T04:37:02;19.40;57.50
16404;DHT22;8311;50.158;8.642;2022-11-09T04:39:56;19.40;57.30
16404;DHT22;8311;50.158;8.642;2022-11-09T04:42:49;19.40;57.20
16404;DHT22;8311;50.158;8.642;2022-11-09T04:45:42;19.40;57.10
16404;DHT22;8311;50.158;8.642;2022-11-09T04:48:35;19.40;57.10
16404;DHT22;8311;50.158;8.642;2022-11-09T04:51:28;19.40;57.00
16404;DHT22;8311;50.158;8.642;2022-11-09T04:54:21;19.40;57.00
16404;DHT22;8311;50.158;8.642;2022-11-09T04:57:15;19.40;57.10
16404;DHT22;8311;50.158;8.642;2022-11-09T05:00:10;19.40;57.00
16404;DHT22;8311;50.158;8.642;2022-11-09T05:03:04;19.40;57.00
16404;DHT22;8311;50.158;8.642;2022-11-09T05:05:57;19.40;57.00
16404;DHT22;8311;50.158;8.642;2022-11-09T05:08:50;19.40;57.00
16404;DHT22;8311;50.158;8.642;2022-11-09T05:11:43;19.40;57.00
16404;DHT22;8311;50.158;8.642;2022-11-09T05:14:37;19.40;57.00
16404;DHT22;8311;50.158;8.642;2022-11-09T05:17:31;19.40;57.00
16404;DHT22;8311;50.158;8.642;2022-11-09T05:20:24;19.40;57.00
16404;DHT22;8311;50.158;8.642;2022-11-09T05:23:17;19.40;57.00
16404;DHT22;8311;50.158;8.642;2022-11-09T05:26:30;19.40;57.00
16404;DHT22;8311;50.158;8.642;2022-11-09T05:29:23;19.40;57.10
16404;DHT22;8311;50.158;8.642;2022-11-09T05:32:17;19.40;57.20
16404;DHT22;8311;50.158;8.642;2022-11-09T05:35:12;19.40;57.30
16404;DHT22;8311;50.158;8.642;2022-11-09T05:38:06;19.30;57.20
16404;DHT22;8311;50.158;8.642;2022-11-09T05:40:59;19.40;57.40
16404;DHT22;8311;50.158;8.642;2022-11-09T05:43:52;19.40;57.40
16404;DHT22;8311;50.158;8.642;2022-11-09T05:46:45;19.40;58.40
16404;DHT22;8311;50.158;8.642;2022-11-09T05:49:40;19.40;58.00
16404;DHT22;8311;50.158;8.642;2022-11-09T07:22:27;19.40;58.30
16404;DHT22;8311;50.158;8.642;2022-11-09T07:25:21;19.40;58.30
16404;DHT22;8311;50.158;8.642;2022-11-09T07:28:15;19.40;58.30
16404;DHT22;8311;50.158;8.642;2022-11-09T07:31:09;19.40;58.30
16404;DHT22;8311;50.158;8.642;2022-11-09T07:34:02;19.40;58.30
16404;DHT22;8311;50.158;8.642;2022-11-09T07:36:56;19.40;58.30
16404;DHT22;8311;50.158;8.642;2022-11-09T07:39:50;19.40;58.40
16404;DHT22;8311;50.158;8.642;2022-11-09T07:42:44;19.40;58.40
16404;DHT22;8311;50.158;8.642;2022-11-09T07:45:37;19.40;58.40
16404;DHT22;8311;50.158;8.642;2022-11-09T07:48:31;19.40;58.40
16404;DHT22;8311;50.158;8.642;2022-11-09T07:51:24;19.40;58.40
16404;DHT22;8311;50.158;8.642;2022-11-09T07:54:17;19.40;58.40
16404;DHT22;8311;50.158;8.642;2022-11-09T07:57:11;19.40;58.40
16404;DHT22;8311;50.158;8.642;2022-11-09T08:00:07;19.40;58.40
16404;DHT22;8311;50.158;8.642;2022-11-09T08:03:01;19.40;58.40
16404;DHT22;8311;50.158;8.642;2022-11-09T08:05:55;19.40;58.40
16404;DHT22;8311;50.158;8.642;2022-11-09T08:08:48;19.40;58.50
16404;DHT22;8311;50.158;8.642;2022-11-09T08:11:41;19.40;58.40
16404;DHT22;8311;50.158;8.642;2022-11-09T08:14:36;19.40;58.50
16404;DHT22;8311;50.158;8.642;2022-11-09T08:17:30;19.40;58.50
16404;DHT22;8311;50.158;8.642;2022-11-09T08:20:23;19.40;58.40
16404;DHT22;8311;50.158;8.642;2022-11-09T08:23:18;19.40;58.40
16404;DHT22;8311;50.158;8.642;2022-11-09T08:26:12;19.40;58.40
16404;DHT22;8311;50.158;8.642;2022-11-09T08:29:05;19.40;58.40
16404;DHT22;8311;50.158;8.642;2022-11-09T08:32:00;19.40;58.50
16404;DHT22;8311;50.158;8.642;2022-11-09T08:34:54;19.40;58.50
16404;DHT22;8311;50.158;8.642;2022-11-09T08:37:48;19.40;58.50
16404;DHT22;8311;50.158;8.642;2022-11-09T08:40:41;19.40;58.60
16404;DHT22;8311;50.158;8.642;2022-11-09T08:43:34;19.40;58.50
16404;DHT22;8311;50.158;8.642;2022-11-09T08:46:27;19.40;58.60
16404;DHT22;8311;50.158;8.642;2022-11-09T08:49:21;19.40;58.70
16404;DHT22;8311;50.158;8.642;2022-11-09T08:52:15;19.40;58.80
16404;DHT22;8311;50.158;8.642;2022-11-09T08:55:08;19.40;58.90
16404;DHT22;8311;50.158;8.642;2022-11-09T08:58:03;19.40;58.90
16404;DHT22;8311;50.158;8.642;2022-11-09T09:00:56;19.40;59.10
16404;DHT22;8311;50.158;8.642;2022-11-09T09:03:50;19.40;60.40
16404;DHT22;8311;50.158;8.642;2022-11-09T09:06:45;19.40;60.30
16404;DHT22;8311;50.158;8.642;2022-11-09T09:09:38;19.40;60.10
16404;DHT22;8311;50.158;8.642;2022-11-09T09:12:31;19.40;59.90
16404;DHT22;8311;50.158;8.642;2022-11-09T09:15:24;19.40;61.30
16404;DHT22;8311;50.158;8.642;2022-11-09T09:18:20;19.40;60.70
16404;DHT22;8311;50.158;8.642;2022-11-09T09:21:15;19.40;60.70
16404;DHT22;8311;50.158;8.642;2022-11-09T09:24:10;19.50;61.00
16404;DHT22;8311;50.158;8.642;2022-11-09T09:27:02;19.40;60.90
16404;DHT22;8311;50.158;8.642;2022-11-09T09:29:57;19.40;60.40
16404;DHT22;8311;50.158;8.642;2022-11-09T09:32:50;19.50;60.10
16404;DHT22;8311;50.158;8.642;2022-11-09T09:35:43;19.50;60.00
16404;DHT22;8311;50.158;8.642;2022-11-09T09:38:37;19.40;59.80
16404;DHT22;8311;50.158;8.642;2022-11-09T09:41:37;19.40;59.70
16404;DHT22;8311;50.158;8.642;2022-11-09T09:44:38;19.40;59.70
16404;DHT22;8311;50.158;8.642;2022-11-09T09:47:43;19.40;59.60
16404;DHT22;8311;50.158;8.642;2022-11-09T09:50:44;19.50;59.70
16404;DHT22;8311;50.158;8.642;2022-11-09T09:53:43;19.50;59.70
16404;DHT22;8311;50.158;8.642;2022-11-09T09:56:42;19.50;59.60
16404;DHT22;8311;50.158;8.642;2022-11-09T09:59:39;19.50;59.50
16404;DHT22;8311;50.158;8.642;2022-11-09T10:02:35;19.50;60.20
16404;DHT22;8311;50.158;8.642;2022-11-09T10:05:38;19.50;59.90
16404;DHT22;8311;50.158;8.642;2022-11-09T10:08:42;19.50;59.70
16404;DHT22;8311;50.158;8.642;2022-11-09T10:11:45;19.50;60.50
16404;DHT22;8311;50.158;8.642;2022-11-09T10:15:02;19.50;60.50
16404;DHT22;8311;50.158;8.642;2022-11-09T10:18:16;19.50;60.70
16404;DHT22;8311;50.158;8.642;2022-11-09T10:21:30;19.50;60.30
16404;DHT22;8311;50.158;8.642;2022-11-09T10:24:39;19.60;61.20
16404;DHT22;8311;50.158;8.642;2022-11-09T10:27:57;19.70;61.50
16404;DHT22;8311;50.158;8.642;2022-11-09T10:30:52;19.80;61.90
16404;DHT22;8311;50.158;8.642;2022-11-09T10:33:47;19.90;62.10
16404;DHT22;8311;50.158;8.642;2022-11-09T10:36:43;20.00;62.40
16404;DHT22;8311;50.158;8.642;2022-11-09T10:39:42;20.10;62.50
16404;DHT22;8311;50.158;8.642;2022-11-09T10:42:37;20.20;62.40
16404;DHT22;8311;50.158;8.642;2022-11-09T10:45:33;20.20;62.10
16404;DHT22;8311;50.158;8.642;2022-11-09T10:48:31;20.40;62.10
16404;DHT22;8311;50.158;8.642;2022-11-09T10:51:34;20.40;61.90
16404;DHT22;8311;50.158;8.642;2022-11-09T10:54:29;20.50;61.80
16404;DHT22;8311;50.158;8.642;2022-11-09T10:57:24;20.60;61.60
16404;DHT22;8311;50.158;8.642;2022-11-09T11:00:19;20.70;61.60
16404;DHT22;8311;50.158;8.642;2022-11-09T11:03:16;20.80;61.60
16404;DHT22;8311;50.158;8.642;2022-11-09T11:06:15;20.90;61.90
16404;DHT22;8311;50.158;8.642;2022-11-09T11:09:15;21.00;61.80
16404;DHT22;8311;50.158;8.642;2022-11-09T11:12:13;21.00;61.00
16404;DHT22;8311;50.158;8.642;2022-11-09T11:15:20;21.10;60.70
16404;DHT22;8311;50.158;8.642;2022-11-09T11:18:22;21.20;60.40
16404;DHT22;8311;50.158;8.642;2022-11-09T11:21:17;21.20;60.20
16404;DHT22;8311;50.158;8.642;2022-11-09T11:24:13;21.30;61.00
16404;DHT22;8311;50.158;8.642;2022-11-09T11:27:11;21.30;60.00
16404;DHT22;8311;50.158;8.642;2022-11-09T11:30:10;21.30;60.10
16404;DHT22;8311;50.158;8.642;2022-11-09T11:33:11;21.40;60.20
16404;DHT22;8311;50.158;8.642;2022-11-09T11:36:14;21.40;60.30
16404;DHT22;8311;50.158;8.642;2022-11-09T11:39:14;21.40;60.30
16404;DHT22;8311;50.158;8.642;2022-11-09T11:42:24;21.40;60.30
16404;DHT22;8311;50.158;8.642;2022-11-09T11:45:26;21.40;60.40
16404;DHT22;8311;50.158;8.642;2022-11-09T11:48:49;21.40;60.60
16404;DHT22;8311;50.158;8.642;2022-11-09T11:51:52;21.40;60.40
16404;DHT22;8311;50.158;8.642;2022-11-09T11:55:00;21.40;60.20
16404;DHT22;8311;50.158;8.642;2022-11-09T11:58:06;21.50;60.60
16404;DHT22;8311;50.158;8.642;2022-11-09T12:01:10;21.40;60.20
16404;DHT22;8311;50.158;8.642;2022-11-09T12:04:27;21.40;60.10
16404;DHT22;8311;50.158;8.642;2022-11-09T12:07:32;21.40;59.90
16404;DHT22;8311;50.158;8.642;2022-11-09T12:10:38;21.40;60.50
16404;DHT22;8311;50.158;8.642;2022-11-09T12:13:45;21.30;59.70
16404;DHT22;8311;50.158;8.642;2022-11-09T12:16:47;21.30;59.60
16404;DHT22;8311;50.158;8.642;2022-11-09T12:19:57;21.30;59.50
16404;DHT22;8311;50.158;8.642;2022-11-09T12:26:18;21.20;59.40
16404;DHT22;8311;50.158;8.642;2022-11-09T12:29:18;21.20;59.30
16404;DHT22;8311;50.158;8.642;2022-11-09T12:32:19;21.20;59.20
16404;DHT22;8311;50.158;8.642;2022-11-09T12:35:27;21.10;59.20
16404;DHT22;8311;50.158;8.642;2022-11-09T12:38:28;21.10;59.10
16404;DHT22;8311;50.158;8.642;2022-11-09T12:41:25;21.00;59.00
16404;DHT22;8311;50.158;8.642;2022-11-09T12:44:24;21.10;59.10
16404;DHT22;8311;50.158;8.642;2022-11-09T12:47:20;21.10;59.00
16404;DHT22;8311;50.158;8.642;2022-11-09T12:50:16;21.00;58.90
16404;DHT22;8311;50.158;8.642;2022-11-09T12:53:10;21.00;58.90
16404;DHT22;8311;50.158;8.642;2022-11-09T12:56:08;21.00;58.90
16404;DHT22;8311;50.158;8.642;2022-11-09T12:59:33;20.90;58.80
16404;DHT22;8311;50.158;8.642;2022-11-09T13:02:29;20.90;58.80
16404;DHT22;8311;50.158;8.642;2022-11-09T13:05:28;20.90;58.80
16404;DHT22;8311;50.158;8.642;2022-11-09T13:08:25;20.90;58.80
16404;DHT22;8311;50.158;8.642;2022-11-09T13:11:26;20.80;58.80
16404;DHT22;8311;50.158;8.642;2022-11-09T13:14:35;20.80;58.80
16404;DHT22;8311;50.158;8.642;2022-11-09T13:17:53;20.80;58.80
16404;DHT22;8311;50.158;8.642;2022-11-09T13:20:48;20.80;58.80
16404;DHT22;8311;50.158;8.642;2022-11-09T13:23:48;20.70;58.70
16404;DHT22;8311;50.158;8.642;2022-11-09T13:27:03;20.70;58.70
16404;DHT22;8311;50.158;8.642;2022-11-09T13:29:56;20.70;58.70
16404;DHT22;8311;50.158;8.642;2022-11-09T13:33:20;20.70;58.70
16404;DHT22;8311;50.158;8.642;2022-11-09T13:36:17;20.70;58.70
16404;DHT22;8311;50.158;8.642;2022-11-09T13:39:30;20.60;58.70
16404;DHT22;8311;50.158;8.642;2022-11-09T13:42:30;20.60;58.70
16404;DHT22;8311;50.158;8.642;2022-11-09T13:45:31;20.60;58.70
16404;DHT22;8311;50.158;8.642;2022-11-09T13:48:32;20.60;58.60
16404;DHT22;8311;50.158;8.642;2022-11-09T13:51:40;20.60;59.30
16404;DHT22;8311;50.158;8.642;2022-11-09T13:54:36;20.50;58.60
16404;DHT22;8311;50.158;8.642;2022-11-09T13:57:36;20.50;58.70
16404;DHT22;8311;50.158;8.642;2022-11-09T14:00:31;20.50;58.70
16404;DHT22;8311;50.158;8.642;2022-11-09T14:03:25;20.50;58.70
16404;DHT22;8311;50.158;8.642;2022-11-09T14:06:18;20.50;58.70
16404;DHT22;8311;50.158;8.642;2022-11-09T14:09:14;20.50;58.70
16404;DHT22;8311;50.158;8.642;2022-11-09T14:12:26;20.40;58.60
16404;DHT22;8311;50.158;8.642;2022-11-09T14:15:32;20.40;58.60
16404;DHT22;8311;50.158;8.642;2022-11-09T14:18:39;20.40;58.60
16404;DHT22;8311;50.158;8.642;2022-11-09T14:21:42;20.40;58.60
16404;DHT22;8311;50.158;8.642;2022-11-09T14:24:36;20.40;58.60
16404;DHT22;8311;50.158;8.642;2022-11-09T14:27:29;20.40;58.60
16404;DHT22;8311;50.158;8.642;2022-11-09T14:30:24;20.40;58.60
16404;DHT22;8311;50.158;8.642;2022-11-09T14:33:24;20.40;58.60
16404;DHT22;8311;50.158;8.642;2022-11-09T14:36:18;20.40;58.50
16404;DHT22;8311;50.158;8.642;2022-11-09T14:39:24;20.30;58.60
16404;DHT22;8311;50.158;8.642;2022-11-09T14:42:18;20.30;58.50
16404;DHT22;8311;50.158;8.642;2022-11-09T14:45:13;20.30;58.50
16404;DHT22;8311;50.158;8.642;2022-11-09T14:48:15;20.30;58.50
16404;DHT22;8311;50.158;8.642;2022-11-09T14:51:11;20.30;58.50
16404;DHT22;8311;50.158;8.642;2022-11-09T14:54:10;20.30;58.50
16404;DHT22;8311;50.158;8.642;2022-11-09T14:57:05;20.30;58.50
16404;DHT22;8311;50.158;8.642;2022-11-09T14:59:58;20.30;58.50
16404;DHT22;8311;50.158;8.642;2022-11-09T15:02:51;20.30;58.50
16404;DHT22;8311;50.158;8.642;2022-11-09T15:05:45;20.20;58.40
16404;DHT22;8311;50.158;8.642;2022-11-09T15:09:00;20.20;58.40
16404;DHT22;8311;50.158;8.642;2022-11-09T15:11:54;20.30;58.40
16404;DHT22;8311;50.158;8.642;2022-11-09T15:14:48;20.20;58.40
16404;DHT22;8311;50.158;8.642;2022-11-09T15:17:44;20.20;58.40
16404;DHT22;8311;50.158;8.642;2022-11-09T15:20:38;20.20;58.40
16404;DHT22;8311;50.158;8.642;2022-11-09T15:23:36;20.20;58.40
16404;DHT22;8311;50.158;8.642;2022-11-09T15:26:36;20.20;58.40
16404;DHT22;8311;50.158;8.642;2022-11-09T15:29:37;20.20;58.30
16404;DHT22;8311;50.158;8.642;2022-11-09T15:32:32;20.20;58.30
16404;DHT22;8311;50.158;8.642;2022-11-09T15:35:26;20.20;59.00
16404;DHT22;8311;50.158;8.642;2022-11-09T15:38:33;20.20;58.30
16404;DHT22;8311;50.158;8.642;2022-11-09T15:41:27;20.10;58.20
16404;DHT22;8311;50.158;8.642;2022-11-09T15:44:22;20.10;58.30
16404;DHT22;8311;50.158;8.642;2022-11-09T15:47:22;20.20;58.30
16404;DHT22;8311;50.158;8.642;2022-11-09T15:50:17;20.10;58.20
16404;DHT22;8311;50.158;8.642;2022-11-09T15:53:12;20.10;58.20
16404;DHT22;8311;50.158;8.642;2022-11-09T15:56:08;20.10;58.20
16404;DHT22;8311;50.158;8.642;2022-11-09T15:59:02;20.10;58.20
16404;DHT22;8311;50.158;8.642;2022-11-09T16:01:57;20.10;58.20
16404;DHT22;8311;50.158;8.642;2022-11-09T16:04:49;20.10;58.20
16404;DHT22;8311;50.158;8.642;2022-11-09T16:07:46;20.10;58.20
16404;DHT22;8311;50.158;8.642;2022-11-09T16:10:40;20.10;58.20
16404;DHT22;8311;50.158;8.642;2022-11-09T16:13:34;20.10;58.10
16404;DHT22;8311;50.158;8.642;2022-11-09T16:16:28;20.10;58.20
16404;DHT22;8311;50.158;8.642;2022-11-09T16:19:23;20.10;58.10
16404;DHT22;8311;50.158;8.642;2022-11-09T16:22:17;20.10;58.10
16404;DHT22;8311;50.158;8.642;2022-11-09T16:25:10;20.10;58.10
16404;DHT22;8311;50.158;8.642;2022-11-09T16:28:03;20.10;58.10
16404;DHT22;8311;50.158;8.642;2022-11-09T16:30:57;20.10;58.10
16404;DHT22;8311;50.158;8.642;2022-11-09T16:33:50;20.10;58.10
16404;DHT22;8311;50.158;8.642;2022-11-09T16:36:44;20.10;58.10
16404;DHT22;8311;50.158;8.642;2022-11-09T16:39:43;20.10;58.10
16404;DHT22;8311;50.158;8.642;2022-11-09T16:42:36;20.10;58.10
16404;DHT22;8311;50.158;8.642;2022-11-09T16:45:30;20.10;58.10
16404;DHT22;8311;50.158;8.642;2022-11-09T16:48:25;20.10;58.10
16404;DHT22;8311;50.158;8.642;2022-11-09T16:51:19;20.00;58.00
16404;DHT22;8311;50.158;8.642;2022-11-09T16:54:14;20.00;58.00
16404;DHT22;8311;50.158;8.642;2022-11-09T16:57:07;20.00;58.00
16404;DHT22;8311;50.158;8.642;2022-11-09T17:00:01;20.00;58.00
16404;DHT22;8311;50.158;8.642;2022-11-09T17:02:55;20.00;58.00
16404;DHT22;8311;50.158;8.642;2022-11-09T17:05:48;20.00;58.00
16404;DHT22;8311;50.158;8.642;2022-11-09T17:08:41;20.10;58.00
16404;DHT22;8311;50.158;8.642;2022-11-09T17:11:35;20.00;58.00
16404;DHT22;8311;50.158;8.642;2022-11-09T17:14:29;20.00;58.00
16404;DHT22;8311;50.158;8.642;2022-11-09T17:17:23;20.00;58.00
16404;DHT22;8311;50.158;8.642;2022-11-09T17:20:16;20.00;58.00
16404;DHT22;8311;50.158;8.642;2022-11-09T17:23:10;20.00;58.00
16404;DHT22;8311;50.158;8.642;2022-11-09T17:26:05;20.00;58.00
16404;DHT22;8311;50.158;8.642;2022-11-09T17:29:00;20.00;58.00
16404;DHT22;8311;50.158;8.642;2022-11-09T17:31:54;20.00;58.00
16404;DHT22;8311;50.158;8.642;2022-11-09T17:34:47;20.00;58.00
16404;DHT22;8311;50.158;8.642;2022-11-09T17:37:40;20.00;58.00
16404;DHT22;8311;50.158;8.642;2022-11-09T17:40:34;20.00;57.90
16404;DHT22;8311;50.158;8.642;2022-11-09T17:43:28;20.00;57.90
16404;DHT22;8311;50.158;8.642;2022-11-09T17:46:23;20.00;57.90
16404;DHT22;8311;50.158;8.642;2022-11-09T17:49:15;20.00;57.90
16404;DHT22;8311;50.158;8.642;2022-11-09T17:52:09;20.00;57.90
16404;DHT22;8311;50.158;8.642;2022-11-09T17:55:02;20.00;57.90
16404;DHT22;8311;50.158;8.642;2022-11-09T17:57:56;20.00;57.90
16404;DHT22;8311;50.158;8.642;2022-11-09T18:00:49;20.00;57.90
16404;DHT22;8311;50.158;8.642;2022-11-09T18:03:43;20.00;57.90
16404;DHT22;8311;50.158;8.642;2022-11-09T18:06:37;20.00;57.90
16404;DHT22;8311;50.158;8.642;2022-11-09T18:09:31;19.90;57.90
16404;DHT22;8311;50.158;8.642;2022-11-09T18:12:32;19.90;57.90
16404;DHT22;8311;50.158;8.642;2022-11-09T18:15:26;20.00;57.90
16404;DHT22;8311;50.158;8.642;2022-11-09T18:18:20;19.90;57.80
16404;DHT22;8311;50.158;8.642;2022-11-09T18:21:17;20.00;57.90
16404;DHT22;8311;50.158;8.642;2022-11-09T18:24:14;20.00;57.90
16404;DHT22;8311;50.158;8.642;2022-11-09T18:27:07;20.00;57.80
16404;DHT22;8311;50.158;8.642;2022-11-09T18:30:00;20.00;57.90
16404;DHT22;8311;50.158;8.642;2022-11-09T18:32:54;19.90;57.80
16404;DHT22;8311;50.158;8.642;2022-11-09T18:35:54;19.90;57.90
16404;DHT22;8311;50.158;8.642;2022-11-09T18:38:49;19.90;57.80
16404;DHT22;8311;50.158;8.642;2022-11-09T18:41:43;20.00;57.90
16404;DHT22;8311;50.158;8.642;2022-11-09T18:44:36;20.00;57.90
16404;DHT22;8311;50.158;8.642;2022-11-09T18:47:29;20.00;57.80
16404;DHT22;8311;50.158;8.642;2022-11-09T18:50:22;20.00;57.80
16404;DHT22;8311;50.158;8.642;2022-11-09T18:53:15;20.00;57.80
16404;DHT22;8311;50.158;8.642;2022-11-09T18:56:12;19.90;57.80
16404;DHT22;8311;50.158;8.642;2022-11-09T18:59:10;20.00;57.80
16404;DHT22;8311;50.158;8.642;2022-11-09T19:02:04;19.90;57.80
16404;DHT22;8311;50.158;8.642;2022-11-09T19:04:59;19.90;57.80
16404;DHT22;8311;50.158;8.642;2022-11-09T19:07:53;19.90;57.80
16404;DHT22;8311;50.158;8.642;2022-11-09T19:10:46;19.90;57.70
16404;DHT22;8311;50.158;8.642;2022-11-09T19:13:40;19.90;57.70
16404;DHT22;8311;50.158;8.642;2022-11-09T19:16:34;20.00;57.80
16404;DHT22;8311;50.158;8.642;2022-11-09T19:19:28;19.90;57.70
16404;DHT22;8311;50.158;8.642;2022-11-09T19:22:21;19.90;57.70
16404;DHT22;8311;50.158;8.642;2022-11-09T19:25:14;19.90;57.70
16404;DHT22;8311;50.158;8.642;2022-11-09T19:28:07;19.90;57.70
16404;DHT22;8311;50.158;8.642;2022-11-09T19:31:01;19.90;57.70
16404;DHT22;8311;50.158;8.642;2022-11-09T19:33:54;19.90;57.70
16404;DHT22;8311;50.158;8.642;2022-11-09T19:36:47;19.90;57.70
16404;DHT22;8311;50.158;8.642;2022-11-09T19:39:40;19.90;57.70
16404;DHT22;8311;50.158;8.642;2022-11-09T19:42:36;19.90;57.70
16404;DHT22;8311;50.158;8.642;2022-11-09T19:45:29;19.90;57.70
16404;DHT22;8311;50.158;8.642;2022-11-09T19:48:24;19.90;57.70
16404;DHT22;8311;50.158;8.642;2022-11-09T19:51:18;19.90;57.70
16404;DHT22;8311;50.158;8.642;2022-11-09T19:54:11;19.90;57.70
16404;DHT22;8311;50.158;8.642;2022-11-09T19:57:05;19.90;57.70
16404;DHT22;8311;50.158;8.642;2022-11-09T19:59:58;19.90;57.70
16404;DHT22;8311;50.158;8.642;2022-11-09T20:02:51;19.90;57.70
16404;DHT22;8311;50.158;8.642;2022-11-09T20:05:45;19.90;57.70
16404;DHT22;8311;50.158;8.642;2022-11-09T20:08:38;19.90;57.70
16404;DHT22;8311;50.158;8.642;2022-11-09T20:11:32;19.90;57.60
16404;DHT22;8311;50.158;8.642;2022-11-09T20:14:42;19.90;57.60
16404;DHT22;8311;50.158;8.642;2022-11-09T20:17:36;19.90;57.70
16404;DHT22;8311;50.158;8.642;2022-11-09T20:20:29;19.90;57.60
16404;DHT22;8311;50.158;8.642;2022-11-09T20:23:23;19.90;57.70